createdAt,value
2018-12-16T00:03:22.550Z,-0.10
2018-12-16T00:08:28.321Z,0.00
2018-12-16T00:13:31.970Z,0.00
2018-12-16T00:18:35.538Z,0.50
2018-12-16T00:23:39.018Z,0.70
2018-12-16T00:28:42.687Z,0.60
2018-12-16T00:33:46.228Z,0.90
2018-12-16T00:38:49.898Z,0.90
2018-12-16T00:43:53.427Z,0.60
2018-12-16T00:48:56.935Z,0.40
2018-12-16T00:54:00.509Z,0.30
2018-12-16T00:59:03.947Z,0.10
2018-12-16T01:04:08.039Z,0.10
2018-12-16T01:09:11.691Z,0.10
2018-12-16T01:14:16.253Z,0.10
2018-12-16T01:19:19.896Z,0.20
2018-12-16T01:24:23.401Z,0.10
2018-12-16T01:29:26.937Z,0.10
2018-12-16T01:34:30.407Z,0.00
2018-12-16T01:39:33.955Z,0.00
2018-12-16T01:44:37.555Z,0.10
2018-12-16T01:49:41.107Z,0.00
2018-12-16T01:54:44.731Z,0.10
2018-12-16T01:59:48.376Z,0.10
2018-12-16T02:04:51.856Z,0.10
2018-12-16T02:09:55.407Z,0.10
2018-12-16T02:14:59.179Z,0.10
2018-12-16T02:20:03.278Z,0.10
2018-12-16T02:25:07.767Z,0.20
2018-12-16T02:35:31.791Z,0.30
2018-12-16T02:40:36.007Z,0.20
2018-12-16T02:45:39.763Z,0.30
2018-12-16T02:50:43.306Z,0.20
2018-12-16T02:55:46.883Z,0.30
2018-12-16T03:00:50.434Z,0.20
2018-12-16T03:05:53.864Z,0.20
2018-12-16T03:10:57.470Z,0.10
2018-12-16T03:16:01.080Z,0.10
2018-12-16T03:21:04.818Z,0.00
2018-12-16T03:26:08.302Z,-0.10
2018-12-16T03:31:11.921Z,-0.10
2018-12-16T03:36:15.438Z,-0.10
2018-12-16T03:41:18.994Z,-0.10
2018-12-16T03:46:22.574Z,-0.10
2018-12-16T03:51:26.225Z,0.00
2018-12-16T03:56:29.680Z,0.10
2018-12-16T04:01:33.115Z,0.20
2018-12-16T04:06:37.083Z,0.20
2018-12-16T04:11:40.657Z,0.40
2018-12-16T04:16:44.125Z,0.30
2018-12-16T04:21:47.577Z,0.40
2018-12-16T04:26:51.075Z,0.50
2018-12-16T04:31:55.875Z,0.50
2018-12-16T04:36:59.437Z,0.50
2018-12-16T04:42:03.236Z,0.40
2018-12-16T04:47:07.975Z,0.40
2018-12-16T04:52:11.429Z,0.60
2018-12-16T04:57:14.867Z,0.70
2018-12-16T05:02:18.401Z,0.80
2018-12-16T05:07:22.033Z,0.80
2018-12-16T05:12:26.047Z,0.90
2018-12-16T05:17:29.423Z,0.90
2018-12-16T05:22:32.868Z,0.90
2018-12-16T05:27:36.291Z,0.90
2018-12-16T05:32:40.223Z,1.00
2018-12-16T05:37:43.923Z,0.90
2018-12-16T05:42:47.349Z,0.90
2018-12-16T05:47:50.827Z,0.90
2018-12-16T05:52:54.339Z,1.00
2018-12-16T05:57:57.805Z,1.00
2018-12-16T06:03:02.502Z,1.00
2018-12-16T06:08:05.920Z,1.00
2018-12-16T06:13:09.579Z,1.00
2018-12-16T06:18:13.213Z,0.90
2018-12-16T06:23:16.898Z,0.90
2018-12-16T06:28:20.392Z,0.90
2018-12-16T06:33:24.977Z,0.90
2018-12-16T06:38:28.537Z,0.90
2018-12-16T06:43:32.126Z,0.90
2018-12-16T06:48:35.873Z,0.90
2018-12-16T06:53:39.571Z,0.80
2018-12-16T06:58:43.006Z,0.80
2018-12-16T07:03:46.524Z,0.80
2018-12-16T07:08:50.043Z,0.70
2018-12-16T07:13:53.612Z,0.70
2018-12-16T07:18:57.109Z,0.80
2018-12-16T07:24:00.998Z,0.80
2018-12-16T07:29:04.705Z,0.80
2018-12-16T07:34:08.181Z,0.70
2018-12-16T07:39:18.780Z,0.70
2018-12-16T07:44:22.427Z,0.70
2018-12-16T07:49:26.071Z,0.80
2018-12-16T07:54:29.675Z,0.80
2018-12-16T07:59:33.310Z,0.80
2018-12-16T08:04:36.802Z,0.90
2018-12-16T08:09:40.236Z,0.80
2018-12-16T08:14:43.773Z,0.80
2018-12-16T08:19:47.403Z,0.70
2018-12-16T08:24:55.065Z,0.70
2018-12-16T08:29:58.635Z,0.80
2018-12-16T08:35:02.084Z,0.90
2018-12-16T08:40:07.752Z,0.90
2018-12-16T08:45:11.316Z,1.00
2018-12-16T08:50:16.565Z,1.00
2018-12-16T08:55:20.270Z,1.00
2018-12-16T09:00:23.838Z,0.90
2018-12-16T09:05:27.528Z,0.90
2018-12-16T09:10:34.093Z,1.10
2018-12-16T09:15:36.690Z,1.00
2018-12-16T09:20:40.379Z,1.00
2018-12-16T09:25:43.953Z,1.20
2018-12-16T09:30:47.801Z,1.40
2018-12-16T09:35:51.547Z,1.40
2018-12-16T09:40:55.497Z,1.50
2018-12-16T09:45:59.188Z,2.10
2018-12-16T09:51:02.828Z,2.00
2018-12-16T09:56:06.360Z,2.00
2018-12-16T10:01:09.925Z,1.80
2018-12-16T10:06:13.418Z,1.90
2018-12-16T10:11:17.219Z,2.20
2018-12-16T10:16:20.679Z,1.90
2018-12-16T10:21:24.203Z,1.30
2018-12-16T10:26:27.719Z,1.10
2018-12-16T10:31:32.155Z,1.00
2018-12-16T10:36:35.959Z,0.90
2018-12-16T10:41:39.459Z,0.90
2018-12-16T10:46:43.463Z,0.90
2018-12-16T10:51:46.985Z,0.90
2018-12-16T10:56:50.406Z,0.90
2018-12-16T11:01:53.929Z,0.90
2018-12-16T11:06:57.494Z,0.90
2018-12-16T11:12:01.025Z,0.90
2018-12-16T11:17:04.545Z,0.90
2018-12-16T11:22:08.080Z,1.00
2018-12-16T11:27:11.767Z,1.00
2018-12-16T11:32:15.221Z,1.00
2018-12-16T11:37:18.943Z,1.10
2018-12-16T11:42:22.529Z,1.10
2018-12-16T11:47:25.975Z,1.10
2018-12-16T11:52:29.524Z,1.10
2018-12-16T11:57:33.004Z,1.10
2018-12-16T12:02:36.445Z,1.20
2018-12-16T12:07:42.081Z,1.20
2018-12-16T12:12:45.804Z,1.20
2018-12-16T12:17:49.676Z,1.20
2018-12-16T12:22:53.578Z,1.30
2018-12-16T12:27:57.295Z,1.20
2018-12-16T12:33:00.765Z,1.20
2018-12-16T12:38:04.361Z,1.20
2018-12-16T12:43:07.917Z,1.20
2018-12-16T12:48:11.680Z,1.20
2018-12-16T12:53:15.248Z,1.20
2018-12-16T12:58:18.768Z,1.30
2018-12-16T13:03:22.434Z,1.10
2018-12-16T13:08:25.850Z,1.10
2018-12-16T13:13:29.370Z,1.10
2018-12-16T13:18:33.168Z,1.20
2018-12-16T13:23:36.688Z,1.20
2018-12-16T13:28:41.279Z,1.20
2018-12-16T13:33:44.742Z,1.10
2018-12-16T13:38:48.623Z,1.10
2018-12-16T13:43:52.218Z,1.10
2018-12-16T13:48:56.112Z,1.10
2018-12-16T13:53:59.569Z,1.10
2018-12-16T13:59:03.054Z,1.10
2018-12-16T14:04:06.559Z,1.10
2018-12-16T14:09:10.248Z,1.10
2018-12-16T14:14:13.914Z,1.10
2018-12-16T14:19:17.542Z,1.10
2018-12-16T14:24:21.421Z,1.10
2018-12-16T14:29:25.183Z,1.00
2018-12-16T14:34:28.930Z,1.00
2018-12-16T14:39:32.431Z,0.90
2018-12-16T14:44:36.018Z,0.90
2018-12-16T14:49:39.721Z,0.80
2018-12-16T14:54:43.254Z,0.80
2018-12-16T14:59:46.923Z,0.80
2018-12-16T15:04:50.703Z,0.80
2018-12-16T15:09:54.172Z,0.70
2018-12-16T15:14:57.820Z,0.70
2018-12-16T15:20:01.372Z,0.70
2018-12-16T15:25:05.915Z,0.80
2018-12-16T15:30:10.608Z,0.80
2018-12-16T15:35:14.225Z,0.80
2018-12-16T15:40:17.789Z,0.80
2018-12-16T15:45:21.396Z,0.90
2018-12-16T15:50:24.829Z,0.90
2018-12-16T15:55:28.340Z,0.80
2018-12-16T16:00:32.267Z,0.80
2018-12-16T16:05:35.797Z,0.90
2018-12-16T16:10:39.789Z,0.90
2018-12-16T16:15:43.246Z,1.00
2018-12-16T16:20:46.768Z,0.90
2018-12-16T16:25:50.494Z,1.00
2018-12-16T16:30:54.417Z,1.00
2018-12-16T16:35:58.222Z,1.00
2018-12-16T16:41:02.149Z,1.00
2018-12-16T16:46:06.767Z,1.10
2018-12-16T16:51:10.271Z,1.10
2018-12-16T17:01:27.027Z,1.10
2018-12-16T17:06:30.759Z,1.10
2018-12-16T17:11:34.874Z,1.10
2018-12-16T17:16:38.367Z,1.10
2018-12-16T17:21:42.214Z,1.10
2018-12-16T17:26:45.922Z,1.00
2018-12-16T17:31:49.629Z,0.90
2018-12-16T17:36:54.599Z,0.90
2018-12-16T17:41:58.073Z,0.90
2018-12-16T17:47:01.966Z,0.80
2018-12-16T17:52:05.514Z,0.80
2018-12-16T17:57:09.047Z,0.70
2018-12-16T18:02:12.728Z,0.80
2018-12-16T18:07:16.342Z,0.70
2018-12-16T18:12:19.800Z,0.80
2018-12-16T18:17:23.247Z,0.80
2018-12-16T18:22:26.811Z,0.90
2018-12-16T18:27:31.301Z,0.90
2018-12-16T18:32:34.855Z,0.90
2018-12-16T18:37:38.679Z,0.90
2018-12-16T18:42:42.260Z,0.90
2018-12-16T18:47:45.744Z,0.90
2018-12-16T18:52:49.312Z,0.80
2018-12-16T18:57:53.002Z,0.80
2018-12-16T19:02:56.510Z,0.80
2018-12-16T19:08:00.011Z,0.70
2018-12-16T19:13:03.487Z,0.80
2018-12-16T19:18:07.151Z,0.80
2018-12-16T19:23:10.643Z,0.80
2018-12-16T19:28:14.125Z,0.80
2018-12-16T19:33:17.542Z,0.80
2018-12-16T19:38:21.016Z,0.80
2018-12-16T19:43:24.714Z,0.80
2018-12-16T19:48:28.163Z,0.80
2018-12-16T19:53:31.638Z,0.80
2018-12-16T19:58:35.529Z,0.80
2018-12-16T20:03:43.555Z,0.90
2018-12-16T20:08:47.015Z,0.90
2018-12-16T20:13:50.438Z,0.80
2018-12-16T20:18:53.843Z,0.80
2018-12-16T20:23:57.435Z,0.80
2018-12-16T20:29:00.951Z,0.70
2018-12-16T20:34:04.482Z,0.70
2018-12-16T20:39:08.184Z,0.80
2018-12-16T20:44:11.665Z,0.90
2018-12-16T20:49:15.195Z,0.90
2018-12-16T20:54:18.689Z,0.80
2018-12-16T20:59:22.171Z,0.90
2018-12-16T21:04:25.682Z,0.80
2018-12-16T21:09:29.283Z,0.80
2018-12-16T21:14:38.641Z,0.80
2018-12-16T21:19:42.390Z,0.80
2018-12-16T21:24:47.111Z,0.80
2018-12-16T21:29:50.550Z,0.80
2018-12-16T21:34:53.959Z,0.80
2018-12-16T21:39:57.542Z,0.80
2018-12-16T21:45:01.087Z,0.80
2018-12-16T21:50:06.879Z,0.80
2018-12-16T21:55:10.518Z,0.90
2018-12-16T22:00:14.040Z,0.80
2018-12-16T22:05:20.671Z,0.90
2018-12-16T22:10:24.104Z,0.90
2018-12-16T22:15:27.552Z,0.90
2018-12-16T22:20:31.504Z,1.00
2018-12-16T22:25:35.188Z,1.00
2018-12-16T22:30:38.823Z,0.90
2018-12-16T22:35:42.284Z,0.90
2018-12-16T22:40:46.048Z,0.90
2018-12-16T22:45:49.493Z,1.00
2018-12-16T22:50:53.113Z,1.00
2018-12-16T22:55:56.583Z,1.00
2018-12-16T23:01:05.723Z,0.90
2018-12-16T23:06:09.224Z,0.90
2018-12-16T23:11:12.817Z,1.40
2018-12-16T23:16:18.221Z,1.10
2018-12-16T23:21:21.822Z,1.20
2018-12-16T23:26:25.360Z,1.30
2018-12-16T23:31:28.899Z,1.40
2018-12-16T23:36:32.407Z,1.40
2018-12-16T23:41:35.947Z,1.40
2018-12-16T23:46:39.435Z,1.30
2018-12-16T23:51:42.878Z,1.20
2018-12-16T23:56:46.399Z,1.30
